Historyczne dane pomiarowe

Dodano dane terminowe – wersja testowa.

Dane z okresu 1951-2019

Wersja bazy: 1.34 [2019-03-16, lista zmian], aktualizacja planowana na 2019-04-15

Dane meteo z obszaru Polski uzyskane na podstawie danych udostępnionych przez Instytut Meteorologii i Gospodarki Wodnej – Państwowy Instytut Badawczy.

 

Wybierz Datę:    

       

TemperaturaWilgotnośćWiatrCiśnienieOpadyŚniegCzas trwania zjawisk
 Stacja t tx tn tng RH VA  wxwx mslp ppp RRR   cm mm wxwxwxwxwxwxwx
1977-09-11 11.1 13.3 8.7--- 8.0 1.7---- 3.8------------
1977-09-12 17.8 23.4 13.1--- 4.7 3.7---- 1.2------------
1977-09-13 12.9 21.1 10.8--- 5.3 1.3---- 0.0------------
1977-09-14 8.9 14.7 3.3--- 1.7 2.3---- 0.0------------
1977-09-15 11.4 13.6 10.3--- 8.0 4.0---- 5.9------------
1977-09-16 7.7 13.3 6.0--- 5.0 5.7---- 2.2------------
1977-09-17 7.5 13.3 4.4--- 3.7 1.3---- 0.0------------
1977-09-18 7.2 11.3 3.4--- 7.0 1.7---- 15.1------------
1977-09-19 6.6 8.1 5.7--- 8.0 1.3---- 1.0------------
1977-09-20 7.6 10.3 5.7--- 8.0 0.7---- 0.0------------
1977-09-21 8.1 9.1 6.9--- 8.0 2.0---- 31.0------------
1977-09-22 7.8 9.5 6.5--- 8.0 2.7---- 12.9------------
1977-09-23 9.6 11.6 8.0--- 8.0 0.7---- 0.4------------
1977-09-24 9.1 12.7 7.4--- 4.7 1.3---- 0.0------------
1977-09-25 6.3 12.7 2.1--- 0.0 2.3---- 0.0------------
1977-09-26 6.4 12.2 2.9--- 2.0 2.3---- 0.0------------
1977-09-27 5.1 10.3 2.3--- 0.0 2.7---- 0.0------------
1977-09-28 5.4 13.6 -0.7--- 1.7 0.3---- 0.0------------
1977-09-29 8.1 15.0 1.7--- 7.0 1.3---- 0.0------------
1977-09-30 12.4 17.0 9.4--- 6.3 3.3---- 0.0------------
1977-10-01 11.6 14.8 7.7--- 8.0 3.3---- 4.8------------
1977-10-02 8.6 12.3 6.2--- 4.3 4.0---- 6.3------------
1977-10-03 7.7 12.0 6.2--- 7.0 2.0---- 2.6------------
1977-10-04 8.0 13.1 6.0--- 3.3 2.3---- 0.0------------
1977-10-05 11.1 16.2 7.2--- 3.3 1.7---- 0.0------------
1977-10-06 11.6 21.3 5.1--- 0.3 0.7---- 0.0------------
1977-10-07 14.6 24.3 7.2--- 0.0 0.3---- 0.0------------
1977-10-08 18.2 26.1 10.6--- 0.0 1.3---- 0.0------------
1977-10-09 16.8 25.4 8.6--- 0.0 1.3---- 0.0------------
1977-10-10 14.6 25.4 7.7--- 2.3 0.3---- 3.5------------
1241.6 ms

 

Źródłem pochodzenia danych jest Instytut Meteorologii i Gospodarki Wodnej – Państwowy Instytut Badawczy. Dane Instytutu Meteorologii i Gospodarki Wodnej – Państwowego Instytutu Badawczego zostały przetworzone.

Dane źródłowe można odnaleźć na stronie https://dane.imgw.pl